Latest Weather Observations for St Helens

IDT60801

Issued at 2:01 am EST Sunday 26 April 2015 (issued every 30 minutes, with the page automatically refreshed every 10 minutes)

About weather observations | Map of weather stations | Latest weather observations for TAS | Other Formats
Station Details ID: 092120 Name: ST HELENS AERODROME Lat: -41.34 Lon: 148.28 Height: 48.0 m
Data from the previous 72 hours. | See also: Recent months at St Helens
Date/Time
EST
Temp
°C
App
Temp
°C
Dew
Point
Rel
Hum
%
Delta-T
°C
Wind Press
QNH
hPa
Press
MSL
hPa
Rain
since 9 am
mm
Dir
 
Spd
km/h
Gust
km/h
Spd
kts
Gust
kts
26/02:00am 10.7 8.3 6.8 77 1.8 SSW 9 15 5 8 1011.9 - 0.0
26/01:30am 10.6 8.3 7.3 80 1.6 S 9 15 5 8 1012.1 - 0.0
26/01:00am 11.0 9.0 6.9 76 1.9 SSW 7 11 4 6 1012.1 - 0.0
26/12:30am 11.0 9.0 7.1 77 1.9 SSW 7 11 4 6 1012.2 - 0.0
26/12:00am 11.1 8.7 6.8 75 2.0 S 9 17 5 9 1012.0 1011.9 0.0
 
Date/Time
EST
Temp
°C
App
Temp
°C
Dew
Point
Rel
Hum
%
Delta-T
°C
Wind Press
QNH
hPa
Press
MSL
hPa
Rain
since 9 am
mm
Dir
 
Spd
km/h
Gust
km/h
Spd
kts
Gust
kts
25/11:30pm 11.3 8.5 7.0 75 2.1 S 11 19 6 10 1012.1 - 0.0
25/11:00pm 11.0 8.2 7.1 77 1.9 S 11 15 6 8 1012.2 - 0.0
25/10:30pm 11.5 8.8 7.2 75 2.1 S 11 19 6 10 1012.2 - 0.0
25/10:00pm 11.7 8.6 7.4 75 2.1 S 13 20 7 11 1012.4 - 0.0
25/09:30pm 12.0 9.4 7.7 75 2.1 S 11 19 6 10 1012.2 - 0.0
25/09:00pm 11.8 9.5 7.5 75 2.1 S 9 15 5 8 1012.2 1012.1 0.0
25/08:30pm 12.0 9.0 7.7 75 2.1 S 13 20 7 11 1012.1 - 0.0
25/08:00pm 11.9 8.8 7.4 74 2.2 S 13 20 7 11 1012.0 - 0.0
25/07:30pm 12.1 8.7 7.6 74 2.2 S 15 26 8 14 1011.9 - 0.0
25/07:00pm 12.4 9.1 7.9 74 2.2 S 15 24 8 13 1011.8 - 0.0
25/06:30pm 12.6 8.9 8.1 74 2.2 S 17 32 9 17 1011.4 - 0.0
25/06:00pm 12.5 9.0 8.6 77 1.9 S 17 30 9 16 1011.1 1011.0 0.0
25/05:30pm 12.7 8.5 8.4 75 2.1 S 20 30 11 16 1010.6 - 0.0
25/05:00pm 12.8 8.9 8.5 75 2.1 S 19 35 10 19 1010.2 - 0.0
25/04:30pm 13.1 9.0 8.8 75 2.2 S 20 33 11 18 1010.0 - 0.0
25/04:00pm 13.4 9.4 9.1 75 2.2 S 20 32 11 17 1009.9 - 0.0
25/03:30pm 13.6 9.8 9.1 74 2.3 S 19 32 10 17 1009.8 - 0.0
25/03:00pm 13.5 9.6 9.4 76 2.1 S 20 35 11 19 1009.5 1009.4 0.0
25/02:30pm 13.4 9.1 9.5 77 2.0 S 22 41 12 22 1009.3 - 0.0
25/02:00pm 13.9 9.3 9.7 76 2.2 SSE 24 43 13 23 1009.0 - 0.0
25/01:30pm 14.9 10.5 10.5 75 2.3 S 24 46 13 25 1009.0 - 0.0
25/01:00pm 15.2 10.9 10.8 75 2.3 SSE 24 44 13 24 1008.8 - 0.0
25/12:30pm 15.0 10.4 9.8 71 2.7 SSE 24 41 13 22 1008.8 - 0.0
25/12:00pm 15.1 11.5 9.9 71 2.7 S 19 32 10 17 1008.9 1008.7 0.0
25/11:30am 15.7 11.8 8.7 63 3.6 SSE 19 30 10 16 1008.9 - 0.0
25/11:00am 16.0 13.6 9.9 67 3.2 S 13 26 7 14 1009.0 - 0.0
25/10:30am 14.7 12.4 9.1 69 2.9 S 11 17 6 9 1008.9 - 0.0
25/10:00am 14.3 12.1 9.5 73 2.5 S 11 17 6 9 1008.7 - 0.0
25/09:30am 14.2 12.2 10.2 77 2.1 SSW 11 17 6 9 1008.5 - 0.0
25/09:00am 14.0 11.6 10.0 77 2.1 S 13 26 7 14 1008.2 1008.2 21.6
25/08:30am 14.0 12.0 11.5 85 1.3 S 13 20 7 11 1008.0 - 21.6
25/08:00am 13.0 12.2 13.0 100 0.0 S 9 15 5 8 1007.7 - 21.6
25/07:30am 11.7 10.9 11.7 100 0.0 SSW 7 9 4 5 1007.3 - 21.6
25/07:00am 11.6 10.8 11.6 100 0.0 S 7 13 4 7 1006.7 - 21.6
25/06:30am 11.8 12.4 11.8 100 0.0 CALM 0 0 0 0 1006.3 - 21.6
25/06:00am 11.9 12.5 11.9 100 0.0 CALM 0 0 0 0 1005.9 1005.9 21.6
25/05:30am 11.9 12.5 11.9 100 0.0 CALM 0 0 0 0 1005.6 - 21.6
25/05:00am 11.9 11.4 11.9 100 0.0 NNW 6 7 3 4 1005.4 - 21.6
25/04:30am 12.0 10.9 12.0 100 0.0 NNW 9 13 5 7 1005.1 - 21.6
25/04:00am 12.2 12.9 12.2 100 0.0 CALM 0 7 0 4 1004.8 - 21.6
25/03:30am 11.9 12.5 11.9 100 0.0 CALM 0 7 0 4 1004.6 - 21.6
25/03:00am 12.1 12.8 12.1 100 0.0 CALM 0 0 0 0 1004.4 1004.4 21.6
25/02:30am 11.9 12.5 11.9 100 0.0 CALM 0 7 0 4 1004.3 - 21.6
25/02:00am 12.1 12.4 12.1 100 0.0 SSW 2 7 1 4 1004.2 - 21.6
25/01:30am 12.5 13.3 12.5 100 0.0 CALM 0 0 0 0 1004.0 - 21.6
25/01:00am 12.7 12.4 12.7 100 0.0 NW 6 7 3 4 1003.9 - 21.6
25/12:30am 12.9 12.7 12.9 100 0.0 NNW 6 9 3 5 1003.8 - 21.4
25/12:00am 12.5 12.5 12.5 100 0.0 SSW 4 9 2 5 1003.8 1003.8 21.4
 
Date/Time
EST
Temp
°C
App
Temp
°C
Dew
Point
Rel
Hum
%
Delta-T
°C
Wind Press
QNH
hPa
Press
MSL
hPa
Rain
since 9 am
mm
Dir
 
Spd
km/h
Gust
km/h
Spd
kts
Gust
kts
24/11:50pm 12.5 12.0 12.5 100 0.0 SSW 7 9 4 5 1003.6 - 21.4
24/11:30pm 12.5 13.3 12.5 100 0.0 CALM 0 0 0 0 1003.4 - 21.4
24/11:00pm 12.5 12.1 12.5 100 0.0 SW 6 7 3 4 1003.3 - 21.4
24/10:30pm 12.6 12.1 12.6 100 0.0 SW 7 9 4 5 1003.1 - 21.4
24/10:00pm 12.7 11.5 12.7 100 0.0 S 11 22 6 12 1003.0 - 21.4
24/09:59pm 12.7 11.1 12.7 100 0.0 S 13 24 7 13 1003.0 - 21.4
24/09:30pm 12.6 10.6 12.6 100 0.0 S 15 24 8 13 1002.6 - 21.4
24/09:02pm 12.7 11.5 12.7 100 0.0 S 11 19 6 10 1002.8 - 21.0
24/09:00pm 12.7 11.5 12.7 100 0.0 S 11 19 6 10 1002.8 1002.8 21.0
24/08:30pm 12.7 11.5 12.7 100 0.0 SSE 11 19 6 10 1002.7 - 19.0
24/08:00pm 12.7 11.1 12.7 100 0.0 S 13 22 7 12 1002.5 - 16.8
24/07:30pm 12.7 12.4 12.7 100 0.0 SW 6 9 3 5 1002.8 - 11.8
24/07:07pm 12.8 11.2 12.8 100 0.0 S 13 20 7 11 1002.6 - 10.0
24/07:00pm 12.8 11.2 12.8 100 0.0 S 13 24 7 13 1002.6 - 9.0
24/06:55pm 12.8 10.8 12.8 100 0.0 S 15 24 8 13 1002.5 - 8.8
24/06:48pm 12.7 10.3 12.7 100 0.0 S 17 28 9 15 1002.3 - 8.6
24/06:44pm 12.7 10.3 12.7 100 0.0 S 17 28 9 15 1002.3 - 8.4
24/06:40pm 12.6 10.2 12.6 100 0.0 S 17 28 9 15 1002.3 - 8.2
24/06:30pm 12.6 10.2 12.6 100 0.0 S 17 30 9 16 1002.2 - 8.0
24/06:00pm 13.0 11.1 13.0 100 0.0 S 15 24 8 13 1002.0 1002.0 7.4
24/05:30pm 13.1 11.5 12.9 99 0.1 S 13 20 7 11 1001.7 - 7.0
24/05:00pm 13.3 12.2 13.1 99 0.1 S 11 20 6 11 1001.6 - 6.4
24/04:30pm 13.8 12.9 13.6 99 0.1 SSE 11 17 6 9 1001.4 - 6.2
24/04:00pm 13.9 13.4 13.7 99 0.1 SSE 9 17 5 9 1001.4 - 6.2
24/03:30pm 14.2 13.8 14.0 99 0.1 SE 9 15 5 8 1001.5 - 6.0
24/03:00pm 14.1 13.3 13.9 99 0.1 SSE 11 20 6 11 1001.7 1001.7 5.8
24/02:30pm 14.3 13.9 14.1 99 0.1 SE 9 13 5 7 1001.9 - 5.6
24/02:00pm 14.8 15.0 14.6 99 0.1 SSE 7 11 4 6 1001.9 - 5.6
24/01:30pm 14.6 14.7 14.4 99 0.1 SE 7 13 4 7 1002.1 - 5.6
24/01:00pm 15.0 15.4 14.8 99 0.1 SSE 6 9 3 5 1002.3 - 5.6
24/12:59pm 14.9 15.3 14.7 99 0.1 SSE 6 9 3 5 1002.3 - 5.6
24/12:40pm 15.1 15.4 14.9 99 0.1 SSE 7 13 4 7 1002.6 - 5.6
24/12:30pm 15.0 15.2 14.8 99 0.1 SSE 7 13 4 7 1002.7 - 5.6
24/12:00pm 15.0 15.4 14.8 99 0.1 SSE 6 9 3 5 1003.1 1003.1 5.6
24/11:30am 14.4 15.7 14.2 99 0.1 CALM 0 6 0 3 1003.5 - 5.4
24/11:29am 14.4 15.4 14.2 99 0.1 SSW 2 6 1 3 1003.6 - 5.4
24/11:28am 14.4 15.4 14.2 99 0.1 SSW 2 6 1 3 1003.6 - 5.4
24/11:00am 14.2 15.5 14.0 99 0.1 CALM 0 0 0 0 1003.9 - 5.4
24/10:32am 13.6 13.9 13.4 99 0.1 NW 4 7 2 4 1004.1 - 4.8
24/10:30am 13.6 13.9 13.4 99 0.1 NW 4 7 2 4 1004.2 - 4.8
24/10:22am 13.7 14.8 13.5 99 0.1 CALM 0 6 0 3 1004.3 - 4.4
24/10:10am 13.5 14.5 13.3 99 0.1 CALM 0 0 0 0 1004.3 - 4.2
24/10:00am 13.6 14.7 13.4 99 0.1 CALM 0 0 0 0 1004.4 - 4.2
24/09:44am 13.3 14.3 13.1 99 0.1 CALM 0 0 0 0 1004.4 - 3.4
24/09:30am 13.3 13.9 13.1 99 0.1 NW 2 7 1 4 1004.6 - 2.4
24/09:00am 13.1 12.7 12.9 99 0.1 NW 7 11 4 6 1004.9 1004.9 4.6
24/08:52am 13.1 12.9 12.9 99 0.1 NW 6 9 3 5 1004.9 - 4.2
24/08:34am 13.3 14.2 13.0 98 0.2 CALM 0 0 0 0 1005.0 - 3.4
24/08:30am 13.2 14.1 12.9 98 0.2 CALM 0 4 0 2 1005.0 - 3.2
24/08:23am 13.2 14.1 12.9 98 0.2 CALM 0 4 0 2 1005.0 - 3.2
24/08:00am 13.1 12.8 12.8 98 0.2 SSW 6 9 3 5 1005.2 - 3.0
24/07:30am 12.9 12.9 12.4 97 0.3 NW 4 7 2 4 1005.3 - 2.8
24/07:08am 12.8 12.7 12.2 96 0.3 NW 4 7 2 4 1005.3 - 2.6
24/07:00am 12.9 12.9 12.3 96 0.3 WNW 4 7 2 4 1005.3 - 2.6
24/06:54am 12.9 13.2 12.3 96 0.3 WNW 2 6 1 3 1005.3 - 2.6
24/06:30am 12.8 12.7 12.0 95 0.4 SSW 4 7 2 4 1005.5 - 2.2
24/06:03am 12.7 12.2 11.9 95 0.4 SW 6 7 3 4 1005.7 - 2.2
24/06:00am 12.7 12.2 11.9 95 0.4 SW 6 7 3 4 1005.7 1005.7 2.2
24/05:30am 12.8 13.4 11.9 94 0.5 CALM 0 6 0 3 1006.0 - 1.6
24/05:00am 12.8 13.3 11.7 93 0.6 CALM 0 6 0 3 1006.2 - 1.6
24/04:46am 12.8 12.2 11.7 93 0.6 WSW 6 7 3 4 1006.2 - 1.6
24/04:30am 12.9 12.3 11.8 93 0.6 S 6 7 3 4 1006.4 - 1.4
24/04:00am 13.0 13.5 11.7 92 0.7 CALM 0 4 0 2 1006.6 - 1.4
24/03:30am 12.9 12.6 11.5 91 0.7 S 4 7 2 4 1006.9 - 1.4
24/03:25am 13.0 13.1 11.6 91 0.7 SSE 2 7 1 4 1007.0 - 1.4
24/03:00am 13.0 13.5 11.6 91 0.7 CALM 0 0 0 0 1007.3 1007.2 1.4
24/02:30am 13.0 13.4 11.4 90 0.8 CALM 0 0 0 0 1007.8 - 1.4
24/02:00am 13.0 13.4 11.4 90 0.8 CALM 0 0 0 0 1008.1 - 1.4
24/01:30am 12.8 13.2 11.2 90 0.8 CALM 0 0 0 0 1008.6 - 1.4
24/01:00am 12.9 12.9 11.3 90 0.8 NNW 2 7 1 4 1009.2 - 1.4
24/12:30am 12.9 12.6 11.3 90 0.8 WNW 4 9 2 5 1009.9 - 1.4
24/12:00am 12.6 12.9 11.0 90 0.8 CALM 0 6 0 3 1010.4 1010.3 1.4
 
Date/Time
EST
Temp
°C
App
Temp
°C
Dew
Point
Rel
Hum
%
Delta-T
°C
Wind Press
QNH
hPa
Press
MSL
hPa
Rain
since 9 am
mm
Dir
 
Spd
km/h
Gust
km/h
Spd
kts
Gust
kts
23/11:30pm 12.6 11.8 11.0 90 0.8 WNW 6 7 3 4 1010.9 - 1.4
23/11:00pm 12.5 11.6 10.7 89 0.9 SSW 6 9 3 5 1011.4 - 1.4
23/10:30pm 12.7 12.9 10.6 87 1.1 CALM 0 0 0 0 1011.8 - 1.4
23/10:00pm 12.9 12.4 10.8 87 1.1 SSW 4 7 2 4 1012.6 - 1.4
23/09:30pm 12.8 11.7 10.7 87 1.1 SSW 7 11 4 6 1013.0 - 1.4
23/09:00pm 12.9 12.0 10.6 86 1.2 SSW 6 11 3 6 1013.3 1013.2 1.4
23/08:30pm 12.9 11.4 10.6 86 1.2 S 9 15 5 8 1013.5 - 1.4
23/08:00pm 13.0 11.5 10.5 85 1.3 S 9 19 5 10 1014.0 - 1.4
23/07:30pm 13.4 11.9 10.6 83 1.5 SSW 9 11 5 6 1014.5 - 1.4
23/07:00pm 14.4 12.4 10.2 76 2.2 S 11 19 6 10 1014.5 - 1.4
23/06:30pm 14.7 11.2 10.3 75 2.3 S 19 30 10 16 1014.5 - 1.4
23/06:00pm 14.7 12.0 10.5 76 2.2 S 15 24 8 13 1014.6 1014.6 1.4
23/05:30pm 14.7 11.9 10.1 74 2.4 S 15 26 8 14 1014.7 - 1.4
23/05:00pm 14.8 12.1 10.2 74 2.4 S 15 26 8 14 1015.0 - 1.4
23/04:30pm 15.1 12.3 10.1 72 2.6 S 15 24 8 13 1015.2 - 1.4
23/04:00pm 15.4 12.3 10.2 71 2.7 S 17 28 9 15 1015.7 - 1.4
23/03:30pm 15.6 12.9 10.4 71 2.7 S 15 26 8 14 1016.2 - 1.4
23/03:00pm 15.8 13.2 10.8 72 2.7 S 15 24 8 13 1016.5 1016.5 1.4
23/02:30pm 15.5 13.4 11.1 75 2.4 S 13 22 7 12 1016.9 - 1.4
23/02:00pm 15.8 13.4 11.4 75 2.4 S 15 26 8 14 1017.3 - 1.4
23/01:30pm 16.0 14.1 11.8 76 2.3 S 13 22 7 12 1017.7 - 1.4
23/01:00pm 14.5 13.6 12.7 89 1.0 S 9 15 5 8 1018.3 - 1.4
23/12:30pm 14.9 12.9 12.6 86 1.3 S 15 24 8 13 1018.8 - 1.4
23/12:00pm 14.6 11.5 12.3 86 1.2 SSE 20 37 11 20 1019.4 1019.4 1.4
23/11:48am 15.9 14.3 12.8 82 1.7 S 13 26 7 14 1019.6 - 1.4
23/11:30am 14.8 12.1 13.0 89 1.0 S 19 30 10 16 1020.1 - 1.4
23/11:28am 14.8 12.5 13.0 89 1.0 S 17 30 9 16 1020.1 - 1.4
23/11:00am 15.0 13.4 14.0 94 0.6 SSE 15 28 8 15 1020.4 - 1.4
23/10:30am 14.2 13.4 13.9 98 0.2 SE 11 22 6 12 1020.7 - 1.4
23/10:27am 14.2 13.4 14.0 99 0.1 SE 11 22 6 12 1020.8 - 1.4
23/10:00am 13.8 12.9 13.6 99 0.1 SE 11 19 6 10 1020.8 - 0.6
23/09:57am 13.8 12.9 13.6 99 0.1 SSE 11 15 6 8 1020.8 - 0.2
23/09:50am 14.1 12.9 13.9 99 0.1 S 13 22 7 12 1020.8 - 0.0
23/09:33am 13.6 11.8 13.4 99 0.1 S 15 30 8 16 1020.9 - 0.0
23/09:30am 13.7 12.0 13.5 99 0.1 S 15 30 8 16 1021.0 - 0.0
23/09:14am 13.8 12.1 13.6 99 0.1 S 15 22 8 12 1021.2 - 0.0
23/09:13am 13.8 12.1 13.6 99 0.1 S 15 22 8 12 1021.2 - 0.0
23/09:00am 13.7 12.3 13.5 99 0.1 S 13 22 7 12 1021.3 1021.3 8.8
23/08:30am 13.1 12.3 12.9 99 0.1 SSE 9 13 5 7 1021.6 - 8.2
23/08:00am 12.7 11.4 12.5 99 0.1 S 11 17 6 9 1021.7 - 6.4
23/07:30am 12.7 11.0 12.4 98 0.2 S 13 20 7 11 1021.6 - 5.6
23/07:29am 12.7 11.0 12.4 98 0.2 S 13 20 7 11 1021.6 - 5.6
23/07:23am 12.7 11.0 12.4 98 0.2 S 13 20 7 11 1021.6 - 5.6
23/07:04am 12.7 11.4 12.4 98 0.2 S 11 17 6 9 1021.7 - 5.6
23/07:00am 12.7 11.0 12.4 98 0.2 S 13 19 7 10 1021.7 - 5.6
23/06:41am 12.9 10.9 12.6 98 0.2 S 15 24 8 13 1021.6 - 5.4
23/06:30am 12.8 11.1 12.3 97 0.3 S 13 20 7 11 1021.6 - 5.2
23/06:00am 12.7 10.5 12.2 97 0.3 S 15 22 8 12 1021.5 1021.5 5.0
23/05:30am 12.5 10.7 12.0 97 0.3 S 13 24 7 13 1021.5 - 5.0
23/05:12am 12.5 11.0 12.0 97 0.3 S 11 17 6 9 1021.6 - 5.0
23/05:00am 12.5 11.4 11.9 96 0.3 S 9 13 5 7 1021.6 - 5.0
23/04:53am 12.5 11.4 11.9 96 0.3 S 9 15 5 8 1021.6 - 4.8
23/04:41am 12.5 11.4 11.9 96 0.3 S 9 15 5 8 1021.7 - 4.6
23/04:30am 12.4 11.3 11.8 96 0.3 S 9 19 5 10 1021.7 - 4.6
23/04:23am 12.5 11.0 11.9 96 0.3 S 11 19 6 10 1021.7 - 4.6
23/04:09am 12.5 10.9 11.7 95 0.4 S 11 20 6 11 1021.8 - 4.2
23/04:00am 12.5 10.9 11.7 95 0.4 S 11 19 6 10 1021.8 - 4.2
23/03:30am 12.5 10.6 11.7 95 0.4 S 13 20 7 11 1022.0 - 4.2
23/03:00am 12.3 10.3 11.5 95 0.4 S 13 24 7 13 1022.2 1022.2 4.2
23/02:42am 12.4 10.1 11.6 95 0.4 S 15 20 8 11 1022.5 - 4.2
23/02:30am 12.3 9.9 11.5 95 0.4 S 15 22 8 12 1022.5 - 4.2
23/02:24am 12.4 10.1 11.6 95 0.4 S 15 20 8 11 1022.5 - 4.2

Other Formats:

Comma delimited format used in spreadsheet applications
http://www.bom.gov.au/fwo/IDT60801/IDT60801.95981.axf

JavaScript Object Notation format (JSON) in row-major order
http://www.bom.gov.au/fwo/IDT60801/IDT60801.95981.json